Terminal Aerodrome Forecast
Issued by NWS

Home | Current Version | Previous Version | Text Only | Print | Product List | Glossary Off
Versions: 1 2 3 4 5 6 7 8 9 10 11 12 13 14 15 16 17 18 19 20

000
FTUS43 KGRB 242300 AAA
TAFAUW
TAF AMD
KAUW 242306Z 2423/2518 14009KT P6SM BKN025
     FM250300 14006KT 5SM BR BKN015 BKN090
     FM250600 17003KT 3SM BR VCSH BKN009 BKN070
      TEMPO 2507/2511 2SM SHRA OVC007
     FM251300 22005KT P6SM BKN090=

USA.gov is the U.S. government's official web portal to all federal, state and local government web resources and services.